Map

Track Data

SID SEASON NUMBER BASIN SUBBASIN NAME ISO_TIME NATURE LAT LON WMO_WIND WMO_PRES WMO_AGENCY TRACK_TYPE DIST2LAND LANDFALL IFLAG USA_AGENCY USA_ATCF_ID USA_LAT USA_LON USA_RECORD USA_STATUS USA_WIND USA_PRES USA_SSHS USA_R34_NE USA_R34_SE USA_R34_SW USA_R34_NW USA_R50_NE USA_R50_SE USA_R50_SW USA_R50_NW USA_R64_NE USA_R64_SE USA_R64_SW USA_R64_NW USA_POCI USA_ROCI USA_RMW USA_EYE TOKYO_LAT TOKYO_LON TOKYO_GRADE TOKYO_WIND TOKYO_PRES TOKYO_R50_DIR TOKYO_R50_LONG TOKYO_R50_SHORT TOKYO_R30_DIR TOKYO_R30_LONG TOKYO_R30_SHORT TOKYO_LAND CMA_LAT CMA_LON CMA_CAT CMA_WIND CMA_PRES HKO_LAT HKO_LON HKO_CAT HKO_WIND HKO_PRES NEWDELHI_LAT NEWDELHI_LON NEWDELHI_GRADE NEWDELHI_WIND NEWDELHI_PRES NEWDELHI_CI NEWDELHI_DP NEWDELHI_POCI REUNION_LAT REUNION_LON REUNION_TYPE REUNION_WIND REUNION_PRES REUNION_TNUM REUNION_CI REUNION_RMW REUNION_R34_NE REUNION_R34_SE REUNION_R34_SW REUNION_R34_NW REUNION_R50_NE REUNION_R50_SE REUNION_R50_SW REUNION_R50_NW REUNION_R64_NE REUNION_R64_SE REUNION_R64_SW REUNION_R64_NW BOM_LAT BOM_LON BOM_TYPE BOM_WIND BOM_PRES BOM_TNUM BOM_CI BOM_RMW BOM_R34_NE BOM_R34_SE BOM_R34_SW BOM_R34_NW BOM_R50_NE BOM_R50_SE BOM_R50_SW BOM_R50_NW BOM_R64_NE BOM_R64_SE BOM_R64_SW BOM_R64_NW BOM_ROCI BOM_POCI BOM_EYE BOM_POS_METHOD BOM_PRES_METHOD NADI_LAT NADI_LON NADI_CAT NADI_WIND NADI_PRES WELLINGTON_LAT WELLINGTON_LON WELLINGTON_WIND WELLINGTON_PRES DS824_LAT DS824_LON DS824_STAGE DS824_WIND DS824_PRES TD9636_LAT TD9636_LON TD9636_STAGE TD9636_WIND TD9636_PRES TD9635_LAT TD9635_LON TD9635_WIND TD9635_PRES TD9635_ROCI NEUMANN_LAT NEUMANN_LON NEUMANN_CLASS NEUMANN_WIND NEUMANN_PRES MLC_LAT MLC_LON MLC_CLASS MLC_WIND MLC_PRES USA_GUST BOM_GUST BOM_GUST_PER REUNION_GUST REUNION_GUST_PER USA_SEAHGT USA_SEARAD_NE USA_SEARAD_SE USA_SEARAD_SW USA_SEARAD_NW STORM_SPEED STORM_DIR
1898309N11085 1898 57 NI BB NOT_NAMED 1898-11-05 00:00:00 TS 10.9000 84.9000 main 474 450 _________O____ -1 10.9000 84.9000 TC 64 9 298
1898309N11085 1898 57 NI BB NOT_NAMED 1898-11-05 03:00:00 TS 11.1069 84.4969 main 450 415 _________PO___ -1 11.2103 84.2953 TC 64 10.9000 84.9000 4 10 297
1898309N11085 1898 57 NI BB NOT_NAMED 1898-11-05 06:00:00 TS 11.3713 83.9595 main 421 362 _________OP___ -1 11.5000 83.7000 TC 64 11.1783 84.3486 4 12 296
1898309N11085 1898 57 NI BB NOT_NAMED 1898-11-05 09:00:00 TS 11.6277 83.3988 main 362 301 _________PP___ -1 11.7573 83.1148 TC 64 11.4549 83.7775 4 12 294
1898309N11085 1898 57 NI BB NOT_NAMED 1898-11-05 12:00:00 TS 11.8645 82.8338 main 290 221 _________OP___ -1 12.0000 82.5000 TC 64 11.7291 83.1676 4 13 292
1898309N11085 1898 57 NI BB NOT_NAMED 1898-11-05 15:00:00 TS 12.1287 82.1575 main 221 141 _________PO___ -1 12.2574 81.8150 TC 55 12.0000 82.5000 4 15 291
1898309N11085 1898 57 NI BB NOT_NAMED 1898-11-05 18:00:00 TS 12.3822 81.4341 main 130 54 _________OP___ -1 12.5000 81.1000 TC 47 12.2645 81.7683 4 15 289
1898309N11085 1898 57 NI BB NOT_NAMED 1898-11-05 21:00:00 TS 12.6169 80.6791 main 54 0 _________PP___ -1 12.7227 80.3401 TC 38 12.5111 81.0182 4 15 287
1898309N11085 1898 57 NI BB NOT_NAMED 1898-11-06 00:00:00 TS 12.8135 80.0045 main 0 0 _________OP___ -1 12.9000 79.7000 TC 30 12.7271 80.3089 4 12 287
1898309N11085 1898 57 NI BB NOT_NAMED 1898-11-06 03:00:00 TS 12.9611 79.5237 main 0 0 _________PO___ -1 13.0221 79.3473 TC 30 12.9000 79.7000 1 8 287
1898309N11085 1898 57 NI BB NOT_NAMED 1898-11-06 06:00:00 TS 13.0605 79.1894 main 0 0 _________OP___ -1 13.1000 79.1000 TC 30 13.0209 79.2787 1 7 285
1898309N11085 1898 57 NI BB NOT_NAMED 1898-11-06 09:00:00 TS 13.1292 78.8621 main 0 0 _________PP___ -1 13.1574 78.7650 TC 30 13.1010 78.9593 1 6 281
1898309N11085 1898 57 NI BB NOT_NAMED 1898-11-06 12:00:00 TS 13.1778 78.5426 main 0 0 _________OP___ -1 13.2000 78.4000 TC 30 13.1556 78.6852 1 6 279
1898309N11085 1898 57 NI BB NOT_NAMED 1898-11-06 15:00:00 TS 13.2250 78.2037 main 0 0 _________PO___ -1 13.2500 78.0075 TC 30 13.2000 78.4000 1 7 278
1898309N11085 1898 57 NI AS NOT_NAMED 1898-11-06 18:00:00 TS 13.2787 77.8026 main 0 0 _________OP___ -1 13.3000 77.6000 TC 30 13.2573 78.0053 1 8 277
1898309N11085 1898 57 NI AS NOT_NAMED 1898-11-06 21:00:00 TS 13.3289 77.3887 main 0 0 _________PP___ -1 13.3500 77.1850 TC 30 13.3077 77.5924 1 8 277
1898309N11085 1898 57 NI AS NOT_NAMED 1898-11-07 00:00:00 TS 13.3771 76.9917 main 0 0 _________OP___ -1 13.4000 76.8000 TC 30 13.3542 77.1834 1 7 278
1898309N11085 1898 57 NI AS NOT_NAMED 1898-11-07 03:00:00 TS 13.4250 76.6425 main 0 0 _________PO___ -1 13.4499 76.4850 TC 30 13.4000 76.8000 1 6 279
1898309N11085 1898 57 NI AS NOT_NAMED 1898-11-07 06:00:00 TS 13.4748 76.3376 main 0 0 _________OP___ -1 13.5000 76.2000 TC 30 13.4497 76.4753 1 6 280
1898309N11085 1898 57 NI AS NOT_NAMED 1898-11-07 09:00:00 TS 13.5248 76.0387 main 0 0 _________PP___ -1 13.5500 75.9000 TC 30 13.4996 76.1774 1 6 280
1898309N11085 1898 57 NI AS NOT_NAMED 1898-11-07 12:00:00 TS 13.5749 75.7454 main 0 0 _________OP___ -1 13.6000 75.6000 TC 30 13.5497 75.8909 1 6 280
1898309N11085 1898 57 NI AS NOT_NAMED 1898-11-07 15:00:00 TS 13.6250 75.4537 main 0 0 _________PO___ -1 13.6499 75.3075 TC 31 13.6000 75.6000 1 6 280
1898309N11085 1898 57 NI AS NOT_NAMED 1898-11-07 18:00:00 TS 13.6748 75.1532 main 0 0 _________OP___ -1 13.7000 75.0000 TC 32 13.6497 75.3065 1 6 279
1898309N11085 1898 57 NI AS NOT_NAMED 1898-11-07 21:00:00 TS 13.7247 74.8374 main 0 0 _________PP___ -1 13.7499 74.6725 TC 33 13.6995 75.0024 1 7 279
1898309N11085 1898 57 NI AS NOT_NAMED 1898-11-08 00:00:00 TS 13.7748 74.4860 main 15 15 _________OP___ -1 13.8000 74.3000 TC 34 13.7496 74.6721 1 7 278
1898309N11085 1898 57 NI AS NOT_NAMED 1898-11-08 03:00:00 TS 13.8250 74.0862 main 54 54 _________PO___ -1 13.8499 73.8725 TC 41 13.8000 74.3000 2 8 276
1898309N11085 1898 57 NI AS NOT_NAMED 1898-11-08 06:00:00 TS 13.8669 73.6380 main 97 97 _________OP___ -1 13.9000 73.4000 TC 49 13.8337 73.8759 2 9 275
1898309N11085 1898 57 NI AS NOT_NAMED 1898-11-08 09:00:00 TS 13.9062 73.1622 main 137 137 _________PP___ -1 13.9424 72.9149 TC 56 13.8699 73.4095 2 10 276
1898309N11085 1898 57 NI AS NOT_NAMED 1898-11-08 12:00:00 TS 13.9606 72.6567 main 175 175 _________OP___ -1 14.0000 72.4000 TC 64 13.9211 72.9133 2 10 278
1898309N11085 1898 57 NI AS NOT_NAMED 1898-11-08 15:00:00 TS 14.0387 72.1250 main 229 229 _________PO___ -1 14.0775 71.8499 TC 64 14.0000 72.4000 4 11 281
1898309N11085 1898 57 NI AS NOT_NAMED 1898-11-08 18:00:00 TS 14.1587 71.5826 main 267 267 _________OP___ -1 14.2000 71.3000 TC 64 14.1173 71.8652 4 11 285
1898309N11085 1898 57 NI AS NOT_NAMED 1898-11-08 21:00:00 TS 14.3276 71.0489 main 324 319 _________PP___ -1 14.3924 70.7776 TC 64 14.2628 71.3203 4 11 289
1898309N11085 1898 57 NI AS NOT_NAMED 1898-11-09 00:00:00 TS 14.5134 70.5451 main 365 365 _________OP___ -1 14.6000 70.3000 TC 64 14.4268 70.7902 4 10 290
1898309N11085 1898 57 NI AS NOT_NAMED 1898-11-09 03:00:00 TS 14.6749 70.0887 main 396 396 _________PO___ -1 14.7499 69.8773 TC 64 14.6000 70.3000 4 9 291
1898309N11085 1898 57 NI AS NOT_NAMED 1898-11-09 06:00:00 TS 14.8295 69.6908 main 429 429 _________OP___ -1 14.9000 69.5000 TC 64 14.7591 69.8815 4 8 294
1898309N11085 1898 57 NI AS NOT_NAMED 1898-11-09 09:00:00 TS 15.0096 69.3272 main 459 459 _________PP___ -1 15.0924 69.1499 TC 64 14.9268 69.5045 4 8 298
1898309N11085 1898 57 NI AS NOT_NAMED 1898-11-09 12:00:00 TS 15.2030 68.9751 main 482 482 _________OP___ -1 15.3000 68.8000 TC 64 15.1061 69.1503 4 8 299
1898309N11085 1898 57 NI AS NOT_NAMED 1898-11-09 15:00:00 TS 15.3963 68.6000 main 517 517 _________PO___ -1 15.4925 68.3999 TC 64 15.3000 68.8000 4 9 298
1898309N11085 1898 57 NI AS NOT_NAMED 1898-11-09 18:00:00 TS 15.6094 68.1984 main 554 554 _________OP___ -1 15.7000 68.0000 TC 64 15.5188 68.3968 4 9 301
1898309N11085 1898 57 NI AS NOT_NAMED 1898-11-09 21:00:00 TS 15.8538 67.8090 main 591 591 _________PP___ -1 15.9575 67.6201 TC 64 15.7502 67.9978 4 9 304
1898309N11085 1898 57 NI AS NOT_NAMED 1898-11-10 00:00:00 TS 16.0907 67.4625 main 619 618 _________OP___ -1 16.2000 67.3000 TC 64 15.9814 67.6249 4 7 305
1898309N11085 1898 57 NI AS NOT_NAMED 1898-11-10 03:00:00 TS 16.2787 67.1887 main 621 617 _________PO___ -1 16.3574 67.0773 TC 64 16.2000 67.3000 4 6 307
1898309N11085 1898 57 NI AS NOT_NAMED 1898-11-10 06:00:00 TS 16.4384 66.9766 main 623 614 _________OP___ -1 16.5000 66.9000 TC 64 16.3768 67.0532 4 5 310
1898309N11085 1898 57 NI AS NOT_NAMED 1898-11-10 09:00:00 TS 16.6135 66.7808 main 617 612 _________PP___ -1 16.6850 66.7074 TC 64 16.5420 66.8543 4 5 315
1898309N11085 1898 57 NI AS NOT_NAMED 1898-11-10 12:00:00 TS 16.8056 66.5891 main 612 608 _________OP___ -1 16.9000 66.5000 TC 64 16.7112 66.6782 4 6 316
1898309N11085 1898 57 NI AS NOT_NAMED 1898-11-10 15:00:00 TS 17.0213 66.3750 main 608 598 _________PO___ -1 17.1425 66.2500 TC 56 16.9000 66.5000 4 6 317
1898309N11085 1898 57 NI AS NOT_NAMED 1898-11-10 18:00:00 TS 17.2398 66.1712 main 605 596 _________OP___ -1 17.4000 66.0000 TC 49 17.1197 66.2996 4 6 319
1898309N11085 1898 57 NI AS NOT_NAMED 1898-11-10 21:00:00 TS 17.4803 65.9621 main 596 596 _________PP___ -1 17.6525 65.7876 TC 41 17.3655 66.0784 4 6 321
1898309N11085 1898 57 NI AS NOT_NAMED 1898-11-11 00:00:00 TS 17.7190 65.7620 main 596 596 _________OP___ -1 17.9000 65.6000 TC 34 17.6285 65.8430 4 5 321
1898309N11085 1898 57 NI AS NOT_NAMED 1898-11-11 03:00:00 NR 17.9000 65.6000 main 596 __________O___ -1 TC 17.9000 65.6000 2 5 320

About IBTrACS Database

This database is a web-friendly format of International Best Track Archive for Climate Stewardship (IBTrACS), a global best track data archive curated by NOAA dating back to 1842.

Updated: 2021-12-03